createdAt,value
2023-04-23T00:02:57.765Z,14.59
2023-04-23T00:06:05.764Z,14.57
2023-04-23T00:09:08.769Z,14.52
2023-04-23T00:12:12.132Z,14.47
2023-04-23T00:15:15.184Z,14.53
2023-04-23T00:18:18.094Z,14.52
2023-04-23T00:21:20.427Z,14.48
2023-04-23T00:24:23.242Z,14.35
2023-04-23T00:27:25.975Z,14.48
2023-04-23T00:30:28.974Z,14.43
2023-04-23T00:33:31.299Z,14.21
2023-04-23T00:36:33.859Z,14.22
2023-04-23T00:39:38.704Z,14.37
2023-04-23T00:42:41.848Z,14.30
2023-04-23T00:45:44.570Z,14.29
2023-04-23T00:48:47.779Z,14.34
2023-04-23T00:51:50.042Z,14.33
2023-04-23T00:54:53.995Z,14.30
2023-04-23T00:57:56.584Z,14.28
2023-04-23T01:00:59.581Z,14.27
2023-04-23T01:04:02.446Z,14.01
2023-04-23T01:07:05.376Z,14.22
2023-04-23T01:10:08.435Z,14.01
2023-04-23T01:13:13.345Z,14.15
2023-04-23T01:16:15.854Z,14.13
2023-04-23T01:19:18.532Z,14.04
2023-04-23T01:22:23.049Z,14.01
2023-04-23T01:25:26.123Z,13.86
2023-04-23T01:28:30.382Z,13.81
2023-04-23T01:31:33.327Z,13.81
2023-04-23T01:34:38.128Z,13.94
2023-04-23T01:37:42.294Z,13.77
2023-04-23T01:40:44.697Z,13.76
2023-04-23T01:43:47.280Z,13.88
2023-04-23T01:46:49.576Z,13.70
2023-04-23T01:49:52.213Z,13.65
2023-04-23T01:52:54.899Z,13.74
2023-04-23T01:55:58.274Z,13.64
2023-04-23T01:59:00.615Z,13.80
2023-04-23T02:02:03.298Z,13.59
2023-04-23T02:05:11.595Z,13.57
2023-04-23T02:08:14.145Z,13.71
2023-04-23T02:11:16.751Z,13.65
2023-04-23T02:14:19.546Z,13.51
2023-04-23T02:17:23.243Z,13.62
2023-04-23T02:20:26.180Z,13.48
2023-04-23T02:23:28.528Z,13.48
2023-04-23T02:26:31.464Z,13.37
2023-04-23T02:29:34.137Z,13.35
2023-04-23T02:32:37.446Z,13.33
2023-04-23T02:35:40.924Z,13.28
2023-04-23T02:38:45.557Z,13.14
2023-04-23T02:41:47.894Z,13.23
2023-04-23T02:44:50.509Z,13.26
2023-04-23T02:47:53.634Z,13.05
2023-04-23T02:50:56.538Z,13.10
2023-04-23T02:53:59.274Z,13.11
2023-04-23T02:57:02.245Z,13.17
2023-04-23T03:00:07.248Z,13.15
2023-04-23T03:03:12.508Z,13.05
2023-04-23T03:06:15.416Z,13.18
2023-04-23T03:09:18.182Z,13.21
2023-04-23T03:12:20.518Z,13.09
2023-04-23T03:15:23.274Z,13.22
2023-04-23T03:18:25.792Z,13.18
2023-04-23T03:21:28.552Z,13.15
2023-04-23T03:24:32.181Z,12.96
2023-04-23T03:27:35.291Z,12.92
2023-04-23T03:30:37.830Z,12.99
2023-04-23T03:33:40.507Z,12.93
2023-04-23T03:36:44.828Z,12.95
2023-04-23T03:39:47.654Z,12.95
2023-04-23T03:42:50.668Z,12.76
2023-04-23T03:45:54.274Z,12.86
2023-04-23T03:48:57.622Z,12.71
2023-04-23T03:52:00.589Z,12.72
2023-04-23T03:55:03.905Z,12.70
2023-04-23T03:58:06.836Z,12.66
2023-04-23T04:01:09.773Z,12.81
2023-04-23T04:04:12.910Z,12.67
2023-04-23T04:07:15.733Z,12.68
2023-04-23T04:10:18.358Z,12.62
2023-04-23T04:13:20.646Z,12.65
2023-04-23T04:16:23.328Z,12.64
2023-04-23T04:19:25.678Z,12.79
2023-04-23T04:22:29.675Z,12.58
2023-04-23T04:25:32.083Z,12.69
2023-04-23T04:28:36.395Z,12.77
2023-04-23T04:31:39.228Z,12.75
2023-04-23T04:34:41.950Z,12.67
2023-04-23T04:37:44.630Z,12.72
2023-04-23T04:40:49.196Z,12.69
2023-04-23T04:43:52.499Z,12.68
2023-04-23T04:46:55.202Z,12.49
2023-04-23T04:49:57.862Z,12.39
2023-04-23T04:53:00.599Z,12.44
2023-04-23T04:56:03.073Z,12.39
2023-04-23T04:59:05.859Z,12.41
2023-04-23T05:02:08.314Z,12.44
2023-04-23T05:05:11.070Z,12.70
2023-04-23T05:08:18.530Z,12.70
2023-04-23T05:11:29.502Z,12.70
2023-04-23T05:14:45.529Z,12.67
2023-04-23T05:17:53.387Z,12.21
2023-04-23T05:20:55.886Z,12.60
2023-04-23T05:23:58.447Z,12.61
2023-04-23T05:27:01.384Z,12.78
2023-04-23T05:30:06.565Z,12.83
2023-04-23T05:33:09.039Z,12.73
2023-04-23T05:36:11.668Z,12.75
2023-04-23T05:39:13.962Z,13.06
2023-04-23T05:42:16.580Z,12.92
2023-04-23T05:45:18.942Z,13.00
2023-04-23T05:48:21.525Z,13.14
2023-04-23T05:51:23.921Z,13.11
2023-04-23T05:54:26.478Z,13.29
2023-04-23T05:57:28.863Z,13.38
2023-04-23T06:00:31.526Z,13.47
2023-04-23T06:03:34.922Z,13.66
2023-04-23T06:06:37.435Z,13.72
2023-04-23T06:09:40.035Z,13.70
2023-04-23T06:12:42.492Z,13.82
2023-04-23T06:15:45.183Z,13.98
2023-04-23T06:18:47.628Z,13.90
2023-04-23T06:21:51.192Z,14.26
2023-04-23T06:24:53.560Z,14.37
2023-04-23T06:27:58.226Z,14.36
2023-04-23T06:31:02.689Z,14.64
2023-04-23T06:34:05.544Z,14.72
2023-04-23T06:37:08.733Z,14.66
2023-04-23T06:40:11.546Z,14.85
2023-04-23T06:43:14.629Z,14.92
2023-04-23T06:46:21.403Z,14.91
2023-04-23T06:49:23.756Z,15.10
2023-04-23T06:52:27.146Z,15.29
2023-04-23T06:55:29.542Z,15.58
2023-04-23T06:58:32.376Z,15.80
2023-04-23T07:01:35.652Z,15.97
2023-04-23T07:04:38.426Z,16.02
2023-04-23T07:07:43.479Z,16.16
2023-04-23T07:10:46.506Z,16.46
2023-04-23T07:13:48.868Z,16.59
2023-04-23T07:16:51.877Z,16.61
2023-04-23T07:19:54.256Z,16.88
2023-04-23T07:23:00.178Z,17.06
2023-04-23T07:26:04.271Z,17.26
2023-04-23T07:29:08.026Z,17.49
2023-04-23T07:32:10.390Z,17.50
2023-04-23T07:35:13.123Z,17.85
2023-04-23T07:38:15.474Z,17.96
2023-04-23T07:41:18.394Z,17.96
2023-04-23T07:44:20.829Z,18.16
2023-04-23T07:47:23.633Z,18.41
2023-04-23T07:50:26.158Z,18.60
2023-04-23T07:53:29.260Z,18.89
2023-04-23T07:56:32.583Z,19.04
2023-04-23T07:59:35.215Z,19.24
2023-04-23T08:02:37.728Z,19.59
2023-04-23T08:05:41.454Z,19.76
2023-04-23T08:08:44.556Z,20.02
2023-04-23T08:11:48.390Z,20.12
2023-04-23T08:14:51.007Z,19.99
2023-04-23T08:17:54.675Z,20.39
2023-04-23T08:20:57.561Z,20.34
2023-04-23T08:24:00.365Z,20.44
2023-04-23T08:27:02.984Z,20.65
2023-04-23T08:30:06.906Z,20.53
2023-04-23T08:33:09.169Z,20.81
2023-04-23T08:36:11.793Z,21.34
2023-04-23T08:39:14.475Z,21.81
2023-04-23T08:42:46.037Z,21.72
2023-04-23T08:45:49.577Z,22.07
2023-04-23T08:48:53.380Z,22.28
2023-04-23T08:51:59.770Z,22.72
2023-04-23T08:55:07.531Z,23.04
2023-04-23T08:58:10.064Z,23.03
2023-04-23T09:01:12.756Z,23.17
2023-04-23T09:04:20.466Z,23.30
2023-04-23T09:07:23.420Z,23.79
2023-04-23T09:10:25.845Z,24.30
2023-04-23T09:13:31.917Z,24.55
2023-04-23T09:16:34.457Z,24.29
2023-04-23T09:19:39.757Z,24.17
2023-04-23T09:22:49.942Z,24.19
2023-04-23T09:25:52.742Z,24.41
2023-04-23T09:28:55.996Z,24.82
2023-04-23T09:32:10.340Z,24.65
2023-04-23T09:35:17.666Z,24.62
2023-04-23T09:38:20.539Z,24.97
2023-04-23T09:41:25.563Z,24.96
2023-04-23T09:44:32.615Z,25.26
2023-04-23T09:47:38.653Z,25.24
2023-04-23T09:50:41.376Z,25.39
2023-04-23T09:53:44.225Z,25.49
2023-04-23T09:56:51.581Z,24.24
2023-04-23T10:00:07.334Z,24.74
2023-04-23T10:03:16.375Z,24.71
2023-04-23T10:06:36.882Z,24.42
2023-04-23T10:09:42.185Z,25.09
2023-04-23T10:12:54.374Z,24.81
2023-04-23T10:16:10.282Z,24.76
2023-04-23T10:19:23.787Z,24.86
2023-04-23T10:22:29.479Z,24.81
2023-04-23T10:25:32.748Z,24.94
2023-04-23T10:28:36.374Z,23.57
2023-04-23T10:31:39.436Z,23.86
2023-04-23T10:34:42.508Z,24.24
2023-04-23T10:37:46.635Z,24.67
2023-04-23T10:40:51.027Z,24.85
2023-04-23T10:43:54.037Z,24.73
2023-04-23T10:47:00.651Z,24.16
2023-04-23T10:50:19.509Z,23.88
2023-04-23T10:53:21.949Z,24.35
2023-04-23T10:56:28.148Z,24.67
2023-04-23T10:59:32.281Z,25.27
2023-04-23T11:02:44.938Z,25.34
2023-04-23T11:05:47.402Z,25.73
2023-04-23T11:08:54.299Z,25.68
2023-04-23T11:12:01.641Z,25.92
2023-04-23T11:15:15.480Z,25.95
2023-04-23T11:18:17.726Z,25.09
2023-04-23T11:21:20.560Z,25.43
2023-04-23T11:24:24.011Z,25.35
2023-04-23T11:27:26.959Z,25.65
2023-04-23T11:30:30.802Z,26.13
2023-04-23T11:33:33.400Z,26.72
2023-04-23T11:36:35.962Z,26.71
2023-04-23T11:39:41.256Z,26.50
2023-04-23T11:42:49.368Z,26.57
2023-04-23T11:45:52.136Z,26.28
2023-04-23T11:48:54.773Z,25.68
2023-04-23T11:52:01.302Z,25.06
2023-04-23T11:55:06.353Z,24.77
2023-04-23T11:58:08.904Z,24.60
2023-04-23T12:01:14.953Z,24.66
2023-04-23T12:04:25.664Z,24.44
2023-04-23T12:07:34.666Z,24.75
2023-04-23T12:10:46.893Z,24.57
2023-04-23T12:13:49.491Z,24.61
2023-04-23T12:16:52.293Z,24.58
2023-04-23T12:19:54.640Z,24.57
2023-04-23T12:23:04.729Z,24.33
2023-04-23T12:26:20.362Z,24.60
2023-04-23T12:29:23.431Z,24.75
2023-04-23T12:32:27.034Z,25.29
2023-04-23T12:35:43.831Z,25.34
2023-04-23T12:38:46.173Z,25.27
2023-04-23T12:41:54.258Z,25.19
2023-04-23T12:45:05.547Z,24.87
2023-04-23T12:48:08.340Z,24.90
2023-04-23T12:51:10.854Z,24.98
2023-04-23T12:54:13.511Z,24.90
2023-04-23T12:57:15.887Z,24.62
2023-04-23T13:00:18.670Z,24.42
2023-04-23T13:03:21.220Z,24.04
2023-04-23T13:06:23.960Z,23.80
2023-04-23T13:09:28.086Z,23.86
2023-04-23T13:12:30.987Z,23.78
2023-04-23T13:15:33.302Z,23.88
2023-04-23T13:18:35.927Z,23.84
2023-04-23T13:21:38.203Z,23.96
2023-04-23T13:24:40.795Z,23.90
2023-04-23T13:27:43.220Z,24.05
2023-04-23T13:30:45.811Z,23.93
2023-04-23T13:33:48.302Z,24.04
2023-04-23T13:36:51.081Z,24.12
2023-04-23T13:39:53.405Z,24.08
2023-04-23T13:42:56.050Z,23.96
2023-04-23T13:45:59.059Z,23.98
2023-04-23T13:49:01.733Z,23.79
2023-04-23T13:52:06.939Z,23.73
2023-04-23T13:55:10.430Z,23.49
2023-04-23T13:58:12.786Z,23.51
2023-04-23T14:01:15.846Z,23.51
2023-04-23T14:04:23.947Z,23.43
2023-04-23T14:07:26.416Z,23.48
2023-04-23T14:10:29.088Z,23.35
2023-04-23T14:13:32.834Z,23.32
2023-04-23T14:16:35.746Z,23.13
2023-04-23T14:19:38.086Z,23.18
2023-04-23T14:22:42.129Z,22.96
2023-04-23T14:25:46.836Z,22.86
2023-04-23T14:28:52.206Z,22.60
2023-04-23T14:31:54.652Z,22.54
2023-04-23T14:34:57.472Z,22.51
2023-04-23T14:38:00.191Z,22.58
2023-04-23T14:41:02.884Z,22.52
2023-04-23T14:44:05.249Z,22.46
2023-04-23T14:47:10.146Z,22.24
2023-04-23T14:50:12.512Z,22.24
2023-04-23T14:53:15.408Z,22.23
2023-04-23T14:56:17.883Z,22.18
2023-04-23T14:59:21.599Z,21.96
2023-04-23T15:02:24.130Z,21.80
2023-04-23T15:05:26.887Z,21.85
2023-04-23T15:08:29.302Z,21.81
2023-04-23T15:11:32.535Z,21.64
2023-04-23T15:14:37.578Z,21.60
2023-04-23T15:17:40.807Z,21.73
2023-04-23T15:20:44.388Z,21.59
2023-04-23T15:23:46.988Z,21.77
2023-04-23T15:26:49.676Z,21.72
2023-04-23T15:29:52.322Z,21.63
2023-04-23T15:32:57.975Z,21.53
2023-04-23T15:36:00.663Z,21.41
2023-04-23T15:39:03.242Z,21.25
2023-04-23T15:42:06.026Z,21.15
2023-04-23T15:45:09.419Z,21.27
2023-04-23T15:48:11.976Z,21.25
2023-04-23T15:51:14.371Z,21.21
2023-04-23T15:54:17.268Z,21.06
2023-04-23T15:57:19.918Z,20.98
2023-04-23T16:00:22.689Z,21.05
2023-04-23T16:03:25.707Z,21.02
2023-04-23T16:06:28.652Z,20.97
2023-04-23T16:09:32.743Z,20.80
2023-04-23T16:12:35.218Z,20.90
2023-04-23T16:15:37.959Z,20.72
2023-04-23T16:18:40.273Z,20.80
2023-04-23T16:21:42.964Z,20.74
2023-04-23T16:24:45.463Z,20.68
2023-04-23T16:27:48.482Z,20.53
2023-04-23T16:30:50.844Z,20.50
2023-04-23T16:33:55.866Z,20.48
2023-04-23T16:36:58.169Z,20.55
2023-04-23T16:40:02.173Z,20.53
2023-04-23T16:43:05.601Z,20.50
2023-04-23T16:46:10.617Z,20.40
2023-04-23T16:49:13.627Z,20.39
2023-04-23T16:52:16.213Z,20.25
2023-04-23T16:55:18.577Z,20.33
2023-04-23T16:58:23.359Z,20.31
2023-04-23T17:01:25.725Z,20.22
2023-04-23T17:04:28.755Z,20.13
2023-04-23T17:07:31.197Z,20.22
2023-04-23T17:10:33.837Z,20.06
2023-04-23T17:13:37.470Z,19.99
2023-04-23T17:16:40.142Z,19.94
2023-04-23T17:19:42.537Z,20.02
2023-04-23T17:22:45.114Z,19.94
2023-04-23T17:25:47.550Z,19.80
2023-04-23T17:28:50.242Z,19.76
2023-04-23T17:31:53.068Z,19.71
2023-04-23T17:35:06.317Z,19.78
2023-04-23T17:38:12.681Z,19.64
2023-04-23T17:41:16.941Z,19.54
2023-04-23T17:44:19.431Z,19.48
2023-04-23T17:47:22.119Z,19.54
2023-04-23T17:50:24.534Z,19.48
2023-04-23T17:53:27.186Z,19.39
2023-04-23T17:56:29.650Z,19.36
2023-04-23T17:59:32.323Z,19.19
2023-04-23T18:02:40.169Z,19.27
2023-04-23T18:05:43.282Z,19.22
2023-04-23T18:08:45.633Z,19.04
2023-04-23T18:11:48.328Z,19.00
2023-04-23T18:14:50.730Z,19.05
2023-04-23T18:17:55.748Z,19.01
2023-04-23T18:20:58.452Z,18.82
2023-04-23T18:24:01.084Z,18.75
2023-04-23T18:27:03.470Z,18.74
2023-04-23T18:30:08.340Z,18.82
2023-04-23T18:33:41.620Z,18.75
2023-04-23T18:36:44.896Z,18.73
2023-04-23T18:39:47.265Z,18.54
2023-04-23T18:42:49.873Z,18.60
2023-04-23T18:45:52.265Z,18.60
2023-04-23T18:49:06.079Z,18.56
2023-04-23T18:52:08.494Z,18.50
2023-04-23T18:55:11.113Z,18.46
2023-04-23T18:58:13.454Z,18.27
2023-04-23T19:01:16.447Z,18.23
2023-04-23T19:04:19.089Z,18.19
2023-04-23T19:07:21.933Z,18.15
2023-04-23T19:10:24.269Z,18.12
2023-04-23T19:13:26.926Z,18.23
2023-04-23T19:16:29.622Z,18.15
2023-04-23T19:19:35.229Z,18.16
2023-04-23T19:22:41.302Z,18.13
2023-04-23T19:25:44.624Z,18.11
2023-04-23T19:28:46.941Z,18.08
2023-04-23T19:31:49.666Z,17.92
2023-04-23T19:34:51.984Z,17.88
2023-04-23T19:37:54.616Z,17.85
2023-04-23T19:40:57.043Z,17.95
2023-04-23T19:43:59.636Z,17.80
2023-04-23T19:47:02.157Z,17.88
2023-04-23T19:50:09.966Z,17.89
2023-04-23T19:53:12.478Z,17.74
2023-04-23T19:56:15.279Z,17.81
2023-04-23T19:59:20.931Z,17.77
2023-04-23T20:02:23.920Z,17.72
2023-04-23T20:05:26.836Z,17.71
2023-04-23T20:08:41.376Z,17.53
2023-04-23T20:11:45.670Z,17.65
2023-04-23T20:14:48.119Z,17.47
2023-04-23T20:17:53.653Z,17.47
2023-04-23T20:20:56.147Z,17.58
2023-04-23T20:23:58.733Z,17.48
2023-04-23T20:27:01.594Z,17.42
2023-04-23T20:30:05.302Z,17.41
2023-04-23T20:33:08.551Z,17.40
2023-04-23T20:36:11.551Z,17.48
2023-04-23T20:39:14.057Z,17.37
2023-04-23T20:42:16.834Z,17.46
2023-04-23T20:45:20.648Z,17.30
2023-04-23T20:48:25.311Z,17.25
2023-04-23T20:51:33.193Z,17.23
2023-04-23T20:54:36.755Z,17.23
2023-04-23T20:57:39.079Z,17.36
2023-04-23T21:00:41.880Z,17.22
2023-04-23T21:03:44.285Z,17.22
2023-04-23T21:06:51.087Z,17.18
2023-04-23T21:09:53.437Z,17.33
2023-04-23T21:12:56.144Z,17.31
2023-04-23T21:15:58.543Z,17.31
2023-04-23T21:19:01.400Z,17.29
2023-04-23T21:22:03.762Z,17.17
2023-04-23T21:25:06.797Z,17.12
2023-04-23T21:28:10.123Z,17.12
2023-04-23T21:31:17.770Z,17.24
2023-04-23T21:34:21.326Z,17.21
2023-04-23T21:37:23.806Z,17.20
2023-04-23T21:40:26.076Z,17.18
2023-04-23T21:43:32.549Z,17.17
2023-04-23T21:46:34.889Z,17.14
2023-04-23T21:49:37.533Z,17.15
2023-04-23T21:52:42.988Z,16.93
2023-04-23T21:59:05.324Z,17.05
2023-04-23T22:02:08.037Z,16.98
2023-04-23T22:05:11.928Z,17.06
2023-04-23T22:08:16.522Z,17.06
2023-04-23T22:11:19.231Z,17.04
2023-04-23T22:14:21.622Z,16.97
2023-04-23T22:17:26.251Z,16.99
2023-04-23T22:20:30.617Z,16.96
2023-04-23T22:23:33.324Z,17.09
2023-04-23T22:26:36.185Z,16.96
2023-04-23T22:29:38.799Z,16.96
2023-04-23T22:32:41.130Z,16.96
2023-04-23T22:35:43.968Z,17.08
2023-04-23T22:38:46.357Z,17.10
2023-04-23T22:41:49.011Z,17.09
2023-04-23T22:44:51.455Z,17.09
2023-04-23T22:47:54.199Z,17.08
2023-04-23T22:50:57.619Z,16.98
2023-04-23T22:54:00.233Z,16.77
2023-04-23T22:57:03.016Z,16.77
2023-04-23T23:00:11.367Z,16.91
2023-04-23T23:03:13.979Z,16.73
2023-04-23T23:06:17.711Z,16.71
2023-04-23T23:09:20.156Z,16.70
2023-04-23T23:12:22.784Z,16.44
2023-04-23T23:15:25.080Z,16.39
2023-04-23T23:18:27.684Z,16.13
2023-04-23T23:21:30.238Z,16.13
2023-04-23T23:24:32.863Z,16.31
2023-04-23T23:27:35.149Z,16.28
2023-04-23T23:30:37.844Z,16.24
2023-04-23T23:33:40.195Z,16.31
2023-04-23T23:36:45.208Z,16.36
2023-04-23T23:39:47.807Z,16.41
2023-04-23T23:42:50.375Z,16.56
2023-04-23T23:45:52.906Z,16.50
2023-04-23T23:48:55.587Z,16.53
2023-04-23T23:51:58.147Z,16.38
2023-04-23T23:55:00.825Z,16.40
2023-04-23T23:58:03.204Z,16.41
